createdAt,value
2022-11-29T00:00:26.402Z,6.90
2022-11-29T00:03:30.136Z,6.94
2022-11-29T00:06:35.202Z,6.95
2022-11-29T00:09:39.343Z,6.86
2022-11-29T00:12:41.983Z,6.78
2022-11-29T00:15:44.627Z,6.78
2022-11-29T00:18:50.096Z,6.86
2022-11-29T00:21:52.757Z,6.90
2022-11-29T00:24:56.781Z,6.86
2022-11-29T00:27:59.393Z,6.74
2022-11-29T00:31:02.449Z,6.84
2022-11-29T00:34:06.873Z,6.82
2022-11-29T00:37:09.521Z,6.77
2022-11-29T00:40:14.020Z,6.83
2022-11-29T00:43:16.659Z,6.85
2022-11-29T00:46:19.368Z,6.81
2022-11-29T00:49:22.032Z,6.86
2022-11-29T00:52:24.672Z,6.83
2022-11-29T00:55:28.656Z,6.77
2022-11-29T00:58:33.336Z,6.76
2022-11-29T01:01:35.998Z,6.78
2022-11-29T01:04:38.854Z,6.85
2022-11-29T01:07:41.511Z,6.81
2022-11-29T01:10:45.677Z,6.67
2022-11-29T01:13:49.792Z,6.55
2022-11-29T01:16:52.449Z,6.49
2022-11-29T01:19:55.161Z,6.43
2022-11-29T01:22:57.810Z,6.44
2022-11-29T01:26:03.643Z,6.47
2022-11-29T01:29:06.319Z,6.42
2022-11-29T01:32:08.969Z,6.30
2022-11-29T01:35:11.630Z,6.60
2022-11-29T01:38:14.261Z,6.66
2022-11-29T01:41:21.306Z,6.78
2022-11-29T01:45:02.144Z,6.55
2022-11-29T01:48:05.250Z,6.67
2022-11-29T01:51:08.340Z,6.58
2022-11-29T01:54:12.144Z,6.67
2022-11-29T01:57:17.129Z,6.66
2022-11-29T02:00:20.964Z,6.65
2022-11-29T02:03:23.594Z,6.63
2022-11-29T02:06:26.513Z,6.66
2022-11-29T02:09:29.242Z,6.61
2022-11-29T02:12:44.569Z,6.54
2022-11-29T02:15:55.951Z,6.56
2022-11-29T02:19:12.157Z,6.70
2022-11-29T02:22:20.511Z,6.64
2022-11-29T02:25:37.290Z,6.44
2022-11-29T02:29:17.117Z,6.37
2022-11-29T02:32:55.320Z,6.52
2022-11-29T02:36:13.404Z,6.65
2022-11-29T02:39:39.254Z,6.21
2022-11-29T02:43:13.161Z,6.56
2022-11-29T02:46:32.448Z,6.50
2022-11-29T02:49:57.873Z,6.57
2022-11-29T02:53:07.146Z,6.29
2022-11-29T02:56:15.122Z,6.52
2022-11-29T02:59:28.506Z,6.63
2022-11-29T03:02:39.874Z,6.45
2022-11-29T03:05:52.010Z,6.60
2022-11-29T03:09:01.812Z,6.61
2022-11-29T03:12:12.026Z,6.25
2022-11-29T03:15:25.925Z,6.50
2022-11-29T03:18:36.015Z,6.20
2022-11-29T03:21:49.993Z,6.52
2022-11-29T03:25:01.885Z,6.46
2022-11-29T03:28:12.173Z,6.40
2022-11-29T03:31:21.750Z,6.32
2022-11-29T03:34:33.811Z,6.40
2022-11-29T03:37:47.329Z,6.41
2022-11-29T03:40:56.594Z,6.53
2022-11-29T03:44:04.546Z,6.52
2022-11-29T03:47:11.773Z,6.54
2022-11-29T03:50:20.147Z,6.54
2022-11-29T03:53:34.353Z,6.52
2022-11-29T03:56:40.484Z,6.51
2022-11-29T03:59:56.927Z,6.56
2022-11-29T04:03:30.395Z,6.47
2022-11-29T04:06:48.575Z,6.57
2022-11-29T04:10:07.666Z,6.54
2022-11-29T04:13:46.372Z,6.51
2022-11-29T04:17:24.417Z,6.52
2022-11-29T04:20:48.306Z,6.44
2022-11-29T04:24:04.635Z,6.52
2022-11-29T04:27:35.553Z,6.31
2022-11-29T04:30:52.672Z,6.41
2022-11-29T04:34:20.482Z,6.33
2022-11-29T04:37:48.058Z,6.44
2022-11-29T04:41:23.114Z,6.43
2022-11-29T04:44:56.483Z,6.41
2022-11-29T04:48:14.512Z,6.45
2022-11-29T04:51:30.556Z,6.41
2022-11-29T04:54:40.470Z,6.41
2022-11-29T04:57:50.289Z,6.40
2022-11-29T05:01:00.725Z,6.33
2022-11-29T05:04:11.615Z,6.37
2022-11-29T05:07:40.417Z,6.46
2022-11-29T05:10:49.271Z,6.49
2022-11-29T05:14:01.518Z,6.53
2022-11-29T05:17:25.616Z,6.47
2022-11-29T05:20:41.914Z,6.27
2022-11-29T05:23:52.937Z,6.40
2022-11-29T05:27:03.236Z,6.39
2022-11-29T05:30:08.472Z,6.40
2022-11-29T05:33:23.852Z,6.27
2022-11-29T05:36:39.278Z,6.35
2022-11-29T05:39:58.931Z,6.39
2022-11-29T05:43:18.836Z,6.32
2022-11-29T05:46:30.349Z,6.39
2022-11-29T05:49:42.393Z,6.36
2022-11-29T05:52:54.700Z,6.33
2022-11-29T05:56:05.231Z,6.39
2022-11-29T05:59:11.785Z,6.53
2022-11-29T06:02:29.259Z,6.47
2022-11-29T06:05:40.388Z,6.26
2022-11-29T06:08:51.548Z,6.22
2022-11-29T06:11:58.854Z,6.29
2022-11-29T06:15:29.114Z,6.40
2022-11-29T06:18:54.704Z,6.43
2022-11-29T06:22:10.725Z,6.42
2022-11-29T06:25:32.535Z,6.46
2022-11-29T06:28:51.650Z,6.48
2022-11-29T06:32:03.979Z,6.23
2022-11-29T06:35:18.778Z,6.42
2022-11-29T06:38:27.094Z,6.42
2022-11-29T06:41:30.219Z,6.39
2022-11-29T06:44:33.481Z,6.46
2022-11-29T06:47:43.451Z,6.41
2022-11-29T06:50:54.321Z,6.38
2022-11-29T06:54:08.085Z,6.33
2022-11-29T06:57:17.960Z,6.39
2022-11-29T07:00:23.154Z,6.48
2022-11-29T07:03:53.224Z,6.52
2022-11-29T07:06:56.179Z,6.53
2022-11-29T07:10:02.062Z,6.54
2022-11-29T07:13:05.630Z,6.49
2022-11-29T07:16:17.205Z,6.51
2022-11-29T07:19:25.217Z,5.95
2022-11-29T07:22:44.124Z,6.26
2022-11-29T07:25:56.731Z,6.30
2022-11-29T07:29:16.925Z,6.50
2022-11-29T07:32:28.028Z,6.54
2022-11-29T07:35:39.684Z,6.53
2022-11-29T07:38:59.981Z,6.54
2022-11-29T07:42:10.726Z,6.56
2022-11-29T07:45:22.165Z,6.62
2022-11-29T07:48:24.887Z,6.49
2022-11-29T07:51:27.557Z,6.47
2022-11-29T07:54:31.263Z,6.63
2022-11-29T07:57:36.895Z,6.61
2022-11-29T08:00:39.635Z,6.60
2022-11-29T08:03:42.484Z,6.62
2022-11-29T08:06:45.136Z,6.71
2022-11-29T08:09:47.981Z,6.70
2022-11-29T08:12:52.329Z,6.58
2022-11-29T08:15:55.059Z,6.67
2022-11-29T08:18:57.861Z,6.67
2022-11-29T08:22:00.519Z,6.70
2022-11-29T08:25:03.548Z,6.72
2022-11-29T08:28:07.589Z,6.81
2022-11-29T08:31:12.305Z,6.80
2022-11-29T08:34:14.952Z,6.81
2022-11-29T08:37:17.561Z,6.80
2022-11-29T08:40:20.397Z,6.66
2022-11-29T08:43:24.354Z,6.66
2022-11-29T08:46:46.994Z,6.71
2022-11-29T08:50:04.745Z,6.78
2022-11-29T08:53:24.861Z,6.75
2022-11-29T08:59:51.454Z,6.77
2022-11-29T09:02:54.062Z,6.77
2022-11-29T09:05:57.460Z,6.57
2022-11-29T09:09:01.359Z,6.30
2022-11-29T09:12:07.395Z,6.71
2022-11-29T09:15:12.295Z,6.75
2022-11-29T09:18:14.915Z,6.78
2022-11-29T09:21:18.331Z,6.64
2022-11-29T09:24:21.148Z,6.71
2022-11-29T09:27:23.744Z,6.49
2022-11-29T09:30:29.863Z,6.40
2022-11-29T09:33:32.516Z,6.66
2022-11-29T09:36:35.201Z,6.66
2022-11-29T09:39:38.124Z,6.64
2022-11-29T09:42:56.793Z,6.83
2022-11-29T09:46:08.873Z,6.86
2022-11-29T09:49:34.070Z,6.91
2022-11-29T09:52:47.823Z,6.91
2022-11-29T09:56:05.726Z,6.95
2022-11-29T09:59:12.797Z,6.77
2022-11-29T10:02:22.255Z,6.77
2022-11-29T10:05:29.926Z,6.85
2022-11-29T10:08:37.057Z,6.88
2022-11-29T10:11:44.673Z,6.87
2022-11-29T10:14:56.176Z,7.00
2022-11-29T10:18:05.618Z,7.10
2022-11-29T10:21:15.318Z,6.95
2022-11-29T10:24:22.135Z,6.99
2022-11-29T10:27:28.316Z,7.09
2022-11-29T10:30:35.091Z,7.00
2022-11-29T10:33:41.582Z,6.92
2022-11-29T10:36:46.956Z,7.11
2022-11-29T10:39:52.959Z,7.21
2022-11-29T10:42:55.634Z,7.04
2022-11-29T10:45:59.080Z,7.20
2022-11-29T10:49:06.178Z,7.20
2022-11-29T10:52:20.247Z,7.29
2022-11-29T10:55:23.806Z,7.29
2022-11-29T10:58:28.961Z,7.26
2022-11-29T11:01:34.744Z,7.35
2022-11-29T11:04:47.064Z,7.38
2022-11-29T11:07:58.306Z,7.25
2022-11-29T11:11:03.046Z,7.39
2022-11-29T11:14:17.832Z,7.32
2022-11-29T11:17:26.264Z,7.34
2022-11-29T11:20:32.846Z,7.41
2022-11-29T11:23:42.597Z,7.37
2022-11-29T11:26:46.842Z,7.21
2022-11-29T11:29:53.632Z,7.25
2022-11-29T11:33:09.564Z,7.30
2022-11-29T11:36:22.464Z,7.29
2022-11-29T11:39:25.267Z,7.36
2022-11-29T11:42:40.362Z,7.40
2022-11-29T11:45:43.415Z,7.18
2022-11-29T11:48:46.670Z,7.30
2022-11-29T11:51:51.463Z,7.36
2022-11-29T11:54:56.695Z,7.38
2022-11-29T11:58:09.039Z,7.38
2022-11-29T12:01:18.088Z,7.33
2022-11-29T12:04:23.486Z,7.12
2022-11-29T12:07:59.728Z,7.22
2022-11-29T12:11:07.026Z,7.39
2022-11-29T12:14:20.532Z,7.49
2022-11-29T12:17:31.879Z,7.55
2022-11-29T12:20:41.306Z,7.60
2022-11-29T12:23:53.380Z,7.57
2022-11-29T12:27:01.581Z,7.58
2022-11-29T12:30:12.556Z,7.48
2022-11-29T12:33:27.989Z,7.54
2022-11-29T12:36:40.802Z,7.51
2022-11-29T12:39:58.152Z,7.52
2022-11-29T12:43:10.693Z,7.41
2022-11-29T12:46:21.904Z,7.41
2022-11-29T12:49:30.337Z,7.40
2022-11-29T12:52:42.954Z,7.46
2022-11-29T12:55:54.461Z,7.38
2022-11-29T12:59:23.223Z,7.46
2022-11-29T13:02:35.804Z,7.52
2022-11-29T13:05:47.061Z,7.53
2022-11-29T13:09:00.799Z,7.48
2022-11-29T13:12:14.161Z,7.51
2022-11-29T13:15:19.603Z,7.49
2022-11-29T13:18:26.617Z,7.42
2022-11-29T13:21:35.224Z,7.31
2022-11-29T13:24:43.201Z,7.32
2022-11-29T13:27:58.282Z,7.42
2022-11-29T13:31:04.145Z,7.46
2022-11-29T13:34:10.825Z,7.42
2022-11-29T13:37:19.893Z,7.44
2022-11-29T13:40:32.777Z,7.47
2022-11-29T13:43:43.419Z,7.30
2022-11-29T13:46:53.593Z,7.30
2022-11-29T13:49:58.472Z,7.37
2022-11-29T13:53:05.623Z,7.41
2022-11-29T13:56:08.280Z,7.38
2022-11-29T13:59:20.035Z,7.27
2022-11-29T14:02:29.377Z,7.25
2022-11-29T14:05:39.375Z,7.33
2022-11-29T14:09:18.257Z,7.34
2022-11-29T14:12:39.436Z,7.34
2022-11-29T14:15:44.062Z,7.43
2022-11-29T14:18:51.007Z,7.37
2022-11-29T14:22:21.807Z,7.44
2022-11-29T14:28:49.581Z,7.40
2022-11-29T14:31:56.806Z,7.45
2022-11-29T14:35:09.209Z,7.27
2022-11-29T14:38:19.296Z,7.37
2022-11-29T14:41:29.842Z,7.42
2022-11-29T14:44:34.102Z,7.39
2022-11-29T14:47:48.743Z,7.37
2022-11-29T14:51:08.570Z,7.43
2022-11-29T14:54:18.245Z,7.37
2022-11-29T14:58:06.105Z,7.39
2022-11-29T15:01:11.045Z,7.32
2022-11-29T15:04:15.461Z,7.15
2022-11-29T15:07:24.633Z,7.30
2022-11-29T15:10:32.622Z,7.35
2022-11-29T15:13:40.068Z,7.33
2022-11-29T15:16:59.089Z,7.44
2022-11-29T15:20:32.086Z,7.24
2022-11-29T15:23:42.367Z,7.27
2022-11-29T15:26:56.476Z,7.26
2022-11-29T15:29:59.861Z,7.27
2022-11-29T15:33:05.646Z,7.22
2022-11-29T15:36:20.157Z,7.35
2022-11-29T15:39:28.887Z,7.28
2022-11-29T15:42:40.711Z,7.27
2022-11-29T15:45:48.437Z,7.24
2022-11-29T15:48:51.133Z,7.25
2022-11-29T15:51:58.629Z,7.33
2022-11-29T15:55:04.203Z,7.24
2022-11-29T15:58:09.047Z,7.21
2022-11-29T16:01:19.779Z,7.27
2022-11-29T16:04:24.310Z,7.27
2022-11-29T16:07:32.173Z,7.25
2022-11-29T16:10:36.966Z,7.25
2022-11-29T16:13:43.043Z,7.20
2022-11-29T16:16:47.695Z,7.29
2022-11-29T16:19:50.454Z,7.21
2022-11-29T16:23:12.279Z,7.33
2022-11-29T16:26:19.783Z,7.36
2022-11-29T16:29:27.952Z,7.30
2022-11-29T16:32:32.606Z,7.36
2022-11-29T16:35:36.241Z,7.32
2022-11-29T16:38:45.945Z,7.36
2022-11-29T16:42:03.506Z,7.22
2022-11-29T16:45:34.558Z,7.27
2022-11-29T16:48:38.333Z,7.27
2022-11-29T16:51:48.176Z,7.30
2022-11-29T16:54:52.219Z,7.32
2022-11-29T16:57:54.952Z,7.33
2022-11-29T17:00:57.685Z,7.31
2022-11-29T17:04:01.320Z,7.30
2022-11-29T17:07:06.616Z,7.35
2022-11-29T17:10:17.824Z,7.36
2022-11-29T17:13:20.391Z,7.37
2022-11-29T17:16:25.019Z,7.33
2022-11-29T17:19:30.513Z,7.34
2022-11-29T17:22:33.153Z,7.30
2022-11-29T17:25:37.362Z,7.30
2022-11-29T17:28:41.009Z,7.24
2022-11-29T17:31:44.848Z,7.32
2022-11-29T17:34:47.728Z,7.25
2022-11-29T17:37:50.620Z,7.26
2022-11-29T17:40:54.585Z,7.29
2022-11-29T17:43:58.319Z,7.29
2022-11-29T17:47:00.894Z,7.06
2022-11-29T17:50:03.608Z,7.14
2022-11-29T17:53:06.597Z,7.29
2022-11-29T17:56:13.030Z,7.10
2022-11-29T17:59:15.695Z,7.16
2022-11-29T18:02:18.345Z,7.00
2022-11-29T18:05:21.069Z,7.13
2022-11-29T18:08:23.721Z,7.22
2022-11-29T18:11:30.625Z,7.24
2022-11-29T18:14:34.072Z,7.26
2022-11-29T18:17:36.705Z,7.26
2022-11-29T18:20:39.311Z,7.04
2022-11-29T18:23:43.283Z,7.10
2022-11-29T18:26:47.623Z,7.14
2022-11-29T18:29:50.613Z,7.14
2022-11-29T18:32:53.392Z,7.14
2022-11-29T18:36:02.566Z,7.19
2022-11-29T18:39:07.306Z,7.01
2022-11-29T18:42:12.585Z,7.06
2022-11-29T18:45:15.255Z,7.10
2022-11-29T18:48:17.898Z,7.13
2022-11-29T18:51:21.429Z,7.00
2022-11-29T18:54:24.026Z,7.10
2022-11-29T18:57:28.071Z,7.09
2022-11-29T19:00:30.706Z,7.21
2022-11-29T19:03:35.521Z,7.19
2022-11-29T19:06:39.868Z,7.27
2022-11-29T19:09:42.869Z,7.10
2022-11-29T19:12:46.820Z,7.17
2022-11-29T19:15:52.921Z,7.22
2022-11-29T19:18:57.293Z,7.17
2022-11-29T19:21:59.930Z,7.17
2022-11-29T19:25:02.620Z,7.18
2022-11-29T19:28:12.571Z,7.24
2022-11-29T19:31:19.041Z,7.13
2022-11-29T19:34:21.718Z,7.14
2022-11-29T19:37:24.328Z,7.24
2022-11-29T19:40:27.476Z,7.18
2022-11-29T19:43:32.412Z,7.21
2022-11-29T19:46:37.038Z,7.17
2022-11-29T19:49:44.749Z,7.08
2022-11-29T19:52:49.113Z,7.20
2022-11-29T19:55:51.730Z,7.17
2022-11-29T19:58:56.194Z,7.19
2022-11-29T20:01:58.817Z,6.99
2022-11-29T20:05:01.445Z,7.12
2022-11-29T20:08:04.080Z,7.18
2022-11-29T20:11:08.030Z,7.17
2022-11-29T20:14:14.493Z,7.19
2022-11-29T20:17:17.249Z,7.15
2022-11-29T20:20:20.108Z,7.12
2022-11-29T20:23:22.774Z,7.12
2022-11-29T20:26:26.148Z,7.20
2022-11-29T20:29:32.646Z,7.15
2022-11-29T20:32:35.860Z,7.20
2022-11-29T20:35:39.227Z,7.17
2022-11-29T20:38:47.397Z,7.25
2022-11-29T20:42:09.123Z,7.06
2022-11-29T20:45:15.369Z,7.11
2022-11-29T20:48:21.205Z,7.09
2022-11-29T20:51:28.289Z,7.14
2022-11-29T20:54:30.935Z,7.13
2022-11-29T20:57:33.825Z,7.19
2022-11-29T21:00:37.771Z,7.16
2022-11-29T21:03:40.508Z,7.15
2022-11-29T21:06:43.136Z,7.10
2022-11-29T21:09:46.232Z,7.11
2022-11-29T21:12:49.398Z,7.07
2022-11-29T21:15:54.096Z,7.15
2022-11-29T21:18:59.589Z,7.23
2022-11-29T21:22:12.469Z,7.20
2022-11-29T21:25:22.291Z,7.19
2022-11-29T21:28:29.926Z,7.19
2022-11-29T21:31:34.478Z,7.10
2022-11-29T21:34:37.153Z,7.02
2022-11-29T21:37:40.002Z,7.04
2022-11-29T21:40:42.647Z,7.08
2022-11-29T21:44:05.332Z,7.13
2022-11-29T21:47:09.281Z,7.13
2022-11-29T21:50:13.578Z,7.17
2022-11-29T21:53:16.220Z,7.14
2022-11-29T21:56:18.862Z,7.13
2022-11-29T21:59:21.575Z,7.18
2022-11-29T22:02:25.650Z,7.14
2022-11-29T22:05:28.349Z,7.17
2022-11-29T22:08:34.531Z,7.15
2022-11-29T22:11:37.394Z,7.18
2022-11-29T22:14:40.006Z,7.16
2022-11-29T22:17:43.961Z,7.16
2022-11-29T22:20:47.219Z,7.02
2022-11-29T22:23:49.799Z,7.07
2022-11-29T22:26:53.878Z,7.12
2022-11-29T22:29:56.524Z,7.14
2022-11-29T22:33:00.462Z,6.93
2022-11-29T22:36:04.709Z,7.13
2022-11-29T22:39:08.781Z,7.10
2022-11-29T22:42:11.505Z,7.13
2022-11-29T22:45:14.124Z,7.20
2022-11-29T22:48:18.090Z,7.14
2022-11-29T22:51:22.400Z,7.10
2022-11-29T22:54:25.070Z,7.11
2022-11-29T22:57:27.681Z,7.15
2022-11-29T23:00:30.779Z,7.19
2022-11-29T23:03:36.439Z,7.18
2022-11-29T23:06:41.460Z,7.18
2022-11-29T23:09:44.068Z,7.07
2022-11-29T23:12:47.417Z,7.14
2022-11-29T23:15:50.043Z,7.18
2022-11-29T23:18:58.040Z,7.12
2022-11-29T23:22:00.656Z,7.02
2022-11-29T23:25:03.302Z,7.05
2022-11-29T23:28:05.944Z,7.03
2022-11-29T23:31:08.544Z,7.13
2022-11-29T23:34:12.524Z,7.15
2022-11-29T23:37:15.146Z,7.13
2022-11-29T23:40:18.051Z,7.09
2022-11-29T23:43:21.584Z,7.14
2022-11-29T23:46:25.477Z,7.13
2022-11-29T23:49:29.442Z,7.14
2022-11-29T23:52:32.086Z,7.05
2022-11-29T23:55:34.707Z,7.13
2022-11-29T23:58:37.938Z,7.16
